Oswego, New York
Current Conditions -  °F | °C
As of 3:54 PM on Sunday 23 Nov 2014 (Local Time) from KFZY Reporting Station
Broken Clouds Broken Clouds  
Wind Chill: 50°   Ceiling: 9000
Heat Index: 50°   Visibility: 10mi
Dew Point: 40°   Wind: 3mph
Humidity: 68%   Direction: 130°SE
Pressure: 29.98"   Gusts: NA
Location:  43.46°N, 76.51°W
Report Text: KFZY 232054Z AUTO 13003KT 10SM SCT075 BKN090 10/04 A2998 RMK AO2 SLP153 60000 T01000044 58021
Loading
Personal Weather Stations






























Interactive Weather Map New forecast layout! Learn more

10-Day Weather Forecast

Advertisements
Track Severe Weather on mobile